Ana Sayfa
METAR-TAF:

METAR-TAF

Havaalanları :

Jackson, Wyoming, Amerika Birleşik Devletleri

Enlem: 43-36N, Boylam: 110-44W, yükseklik: 1964 m

Güncel hava durumu gözlemi

Rapor saat 12:56 UTC de 44 dakika önce yapıldı.
Rüzgar kuzey/kuzeydoğudan 5 kt
Sıcaklık -9°C
Nem 79%
Basınç 1025 hPa
Görüş mesafesi: 16.1 km
Açık gökyüzü

METAR: KJAC 141256Z AUTO 02005KT 10SM CLR M09/M12 A3028 RMK AO2 SLP304 T10941117 FZRANO

Saat: 06:40 (13:40 UTC)

Tahmin

Rapor saat 11:20 UTC de 2 saat ve 20 dakika önce yapıldı.
Ayın 14'si saat 12 UTC'den ayın 15'si saat 12 UTC'ye kadar geçerli Tahmin
Rüzgar kuzey/kuzeydoğudan 6 kt
Görüş mesafesi: 10 km
Açık gökyüzü
Ayın 14'si saat 1900 UTC'den
Rüzgar güneydan 5 kt
Görüş mesafesi: 10 km
Açık gökyüzü
Ayın 15'si saat 0300 UTC'den
Rüzgar kuzeydan 5 kt
Görüş mesafesi: 10 km
10000 ft yükseklikte parçalı çok bulutlu

TAF: KJAC 141120Z 1412/1512 02006KT P6SM SKC FM141900 19005KT P6SM SKC FM150300 01005KT P6SM BKN100 AMD LTD TO CLD VIS AND WIND

4.000'den fazla havaalanı için hava durumu gözlemleri ve tahminleri (METAR ve TAF raporları).

Kullanılabilir istasyonlar harita üzerinde sarı ve kırmızı noktalarla gösterilir.

İstasyonun adını görmek için fareyi noktanın üzerinde gezdirin.

Sonrasında hava gözlem ve tahminlerini görmek için tıklayın.

Haritayı değiştirmek için: yaklaştırmak için siyah artı işaretli yeşil düğmeye ve uzaklaştırmak için de eksi işaretli düğmeye hızla tıklayın; bitişik haritalar için yeşil okları kullanın.


METAR-TAF: